createdAt,value
2019-01-24T00:00:58.356Z,53.87
2019-01-24T00:03:28.609Z,53.81
2019-01-24T00:05:59.905Z,53.87
2019-01-24T00:08:30.172Z,53.12
2019-01-24T00:10:57.510Z,53.02
2019-01-24T00:13:26.542Z,53.61
2019-01-24T00:15:53.249Z,53.15
2019-01-24T00:18:21.310Z,53.17
2019-01-24T00:20:49.211Z,53.12
2019-01-24T00:23:19.581Z,53.20
2019-01-24T00:25:51.020Z,53.11
2019-01-24T00:28:21.942Z,53.34
2019-01-24T00:30:49.357Z,53.56
2019-01-24T00:33:17.015Z,53.29
2019-01-24T00:35:51.389Z,53.17
2019-01-24T00:38:19.271Z,53.19
2019-01-24T00:40:46.974Z,53.39
2019-01-24T00:43:18.595Z,53.36
2019-01-24T00:45:46.904Z,52.80
2019-01-24T00:48:14.851Z,52.82
2019-01-24T00:50:42.766Z,53.28
2019-01-24T00:53:10.641Z,53.37
2019-01-24T00:55:38.310Z,53.67
2019-01-24T00:58:05.269Z,53.43
2019-01-24T01:00:35.179Z,53.42
2019-01-24T01:03:02.955Z,53.35
2019-01-24T01:05:31.039Z,53.38
2019-01-24T01:10:50.544Z,53.53
2019-01-24T01:13:17.779Z,53.93
2019-01-24T01:15:45.654Z,53.79
2019-01-24T01:18:17.240Z,53.76
2019-01-24T01:20:46.185Z,53.45
2019-01-24T01:23:15.044Z,53.38
2019-01-24T01:25:47.503Z,53.53
2019-01-24T01:28:18.187Z,53.48
2019-01-24T01:30:45.988Z,53.72
2019-01-24T01:33:14.679Z,53.63
2019-01-24T01:35:43.156Z,53.83
2019-01-24T01:38:13.393Z,53.81
2019-01-24T01:40:44.900Z,53.98
2019-01-24T01:43:15.753Z,54.78
2019-01-24T01:45:45.400Z,55.26
2019-01-24T01:48:16.512Z,55.44
2019-01-24T01:50:44.922Z,55.48
2019-01-24T01:53:12.113Z,55.52
2019-01-24T01:55:53.143Z,55.12
2019-01-24T01:58:09.586Z,54.97
2019-01-24T02:00:37.618Z,54.54
2019-01-24T02:03:07.078Z,54.90
2019-01-24T02:05:39.859Z,54.72
2019-01-24T02:08:07.534Z,54.80
2019-01-24T02:10:36.428Z,54.79
2019-01-24T02:13:06.953Z,55.23
2019-01-24T02:18:18.345Z,56.09
2019-01-24T02:20:45.472Z,56.32
2019-01-24T02:23:30.414Z,56.34
2019-01-24T02:26:01.209Z,56.30
2019-01-24T02:28:32.223Z,55.95
2019-01-24T02:30:59.849Z,55.73
2019-01-24T02:33:27.935Z,55.20
2019-01-24T02:38:45.465Z,55.19
2019-01-24T02:41:12.098Z,55.11
2019-01-24T02:43:39.037Z,55.00
2019-01-24T02:46:05.962Z,54.73
2019-01-24T02:48:32.762Z,54.71
2019-01-24T02:50:59.428Z,54.63
2019-01-24T02:53:26.278Z,54.65
2019-01-24T02:55:53.237Z,54.70
2019-01-24T02:58:20.217Z,54.82
2019-01-24T03:00:47.219Z,54.67
2019-01-24T03:03:15.757Z,54.56
2019-01-24T03:05:43.102Z,54.80
2019-01-24T03:08:09.800Z,55.06
2019-01-24T03:10:36.506Z,55.48
2019-01-24T03:13:03.439Z,55.35
2019-01-24T03:15:31.022Z,55.36
2019-01-24T03:17:57.799Z,55.20
2019-01-24T03:20:24.734Z,54.88
2019-01-24T03:22:51.533Z,55.11
2019-01-24T03:25:18.570Z,55.28
2019-01-24T03:27:46.003Z,55.18
2019-01-24T03:30:12.633Z,54.92
2019-01-24T03:32:39.317Z,54.69
2019-01-24T03:35:06.135Z,54.80
2019-01-24T03:37:33.119Z,54.77
2019-01-24T03:39:59.899Z,54.50
2019-01-24T03:42:26.523Z,53.95
2019-01-24T03:44:53.275Z,54.10
2019-01-24T03:47:20.263Z,54.41
2019-01-24T03:49:47.253Z,54.53
2019-01-24T03:52:14.250Z,54.90
2019-01-24T03:54:40.974Z,54.50
2019-01-24T03:57:07.691Z,54.56
2019-01-24T03:59:34.676Z,54.46
2019-01-24T04:02:01.691Z,54.68
2019-01-24T04:04:28.676Z,55.04
2019-01-24T04:06:55.378Z,55.29
2019-01-24T04:09:21.970Z,55.05
2019-01-24T04:11:48.721Z,54.86
2019-01-24T04:14:17.147Z,55.10
2019-01-24T04:16:43.850Z,55.35
2019-01-24T04:19:11.092Z,55.06
2019-01-24T04:21:38.114Z,55.14
2019-01-24T04:24:04.923Z,55.08
2019-01-24T04:26:32.140Z,55.08
2019-01-24T04:28:58.946Z,55.24
2019-01-24T04:31:25.590Z,54.98
2019-01-24T04:33:52.516Z,54.84
2019-01-24T04:36:21.436Z,54.49
2019-01-24T04:38:52.902Z,54.32
2019-01-24T04:41:19.505Z,54.57
2019-01-24T04:43:48.836Z,54.53
2019-01-24T04:46:20.860Z,54.39
2019-01-24T04:48:49.953Z,54.12
2019-01-24T04:51:17.671Z,54.11
2019-01-24T04:53:47.786Z,54.44
2019-01-24T04:56:17.394Z,54.46
2019-01-24T04:58:44.484Z,54.96
2019-01-24T05:01:11.219Z,54.89
2019-01-24T05:03:37.792Z,53.80
2019-01-24T05:06:04.464Z,54.06
2019-01-24T05:08:31.576Z,54.28
2019-01-24T05:10:58.614Z,54.14
2019-01-24T05:13:25.628Z,54.06
2019-01-24T05:15:52.654Z,54.13
2019-01-24T05:18:19.626Z,54.10
2019-01-24T05:20:48.022Z,53.58
2019-01-24T05:23:14.769Z,53.19
2019-01-24T05:25:41.705Z,53.74
2019-01-24T05:28:08.744Z,53.99
2019-01-24T05:30:35.946Z,53.97
2019-01-24T05:33:02.965Z,53.79
2019-01-24T05:35:34.702Z,53.78
2019-01-24T05:37:58.370Z,53.88
2019-01-24T05:40:25.191Z,54.04
2019-01-24T05:42:52.043Z,53.99
2019-01-24T05:45:18.979Z,53.11
2019-01-24T05:47:45.989Z,53.77
2019-01-24T05:50:12.756Z,54.06
2019-01-24T05:52:39.407Z,54.22
2019-01-24T05:55:06.128Z,54.28
2019-01-24T05:57:33.123Z,54.32
2019-01-24T06:00:00.090Z,53.49
2019-01-24T06:02:26.840Z,53.59
2019-01-24T06:04:53.465Z,53.84
2019-01-24T06:07:20.235Z,54.48
2019-01-24T06:09:48.088Z,54.58
2019-01-24T06:12:14.745Z,54.39
2019-01-24T06:14:41.530Z,54.27
2019-01-24T06:17:08.474Z,53.99
2019-01-24T06:19:35.490Z,53.53
2019-01-24T06:22:02.113Z,53.45
2019-01-24T06:24:28.910Z,53.34
2019-01-24T06:26:55.878Z,53.53
2019-01-24T06:29:22.730Z,53.67
2019-01-24T06:31:49.698Z,53.11
2019-01-24T06:34:16.834Z,53.46
2019-01-24T06:39:16.151Z,53.97
2019-01-24T06:41:43.526Z,53.95
2019-01-24T06:44:10.406Z,53.82
2019-01-24T06:46:37.189Z,54.25
2019-01-24T06:49:04.028Z,54.37
2019-01-24T06:51:30.866Z,54.25
2019-01-24T06:53:57.547Z,54.30
2019-01-24T06:56:24.511Z,54.05
2019-01-24T06:58:51.139Z,53.94
2019-01-24T07:01:19.316Z,53.83
2019-01-24T07:03:46.023Z,52.77
2019-01-24T07:06:13.093Z,52.79
2019-01-24T07:08:41.785Z,53.48
2019-01-24T07:11:08.876Z,54.01
2019-01-24T07:13:35.919Z,53.84
2019-01-24T07:16:03.055Z,53.67
2019-01-24T07:18:33.438Z,53.90
2019-01-24T07:21:00.571Z,53.85
2019-01-24T07:23:27.273Z,53.75
2019-01-24T07:25:54.219Z,53.62
2019-01-24T07:28:21.142Z,53.24
2019-01-24T07:30:49.058Z,53.25
2019-01-24T07:33:15.688Z,52.78
2019-01-24T07:35:43.084Z,53.06
2019-01-24T07:38:09.892Z,52.89
2019-01-24T07:40:36.537Z,52.06
2019-01-24T07:43:03.565Z,52.76
2019-01-24T07:45:30.625Z,52.98
2019-01-24T07:47:57.610Z,52.96
2019-01-24T07:50:24.569Z,52.97
2019-01-24T07:52:51.484Z,52.71
2019-01-24T07:55:20.235Z,52.21
2019-01-24T07:57:47.074Z,52.01
2019-01-24T08:00:13.743Z,51.27
2019-01-24T08:02:40.696Z,51.50
2019-01-24T08:05:07.800Z,51.87
2019-01-24T08:07:34.759Z,51.69
2019-01-24T08:10:01.502Z,50.90
2019-01-24T08:12:28.141Z,51.35
2019-01-24T08:14:54.963Z,51.22
2019-01-24T08:17:21.687Z,50.56
2019-01-24T08:19:48.718Z,50.79
2019-01-24T08:22:15.333Z,50.13
2019-01-24T08:24:42.109Z,49.98
2019-01-24T08:27:08.752Z,50.08
2019-01-24T08:29:37.187Z,49.29
2019-01-24T08:32:04.470Z,49.01
2019-01-24T08:34:31.445Z,49.45
2019-01-24T08:37:01.562Z,49.39
2019-01-24T08:39:31.272Z,48.70
2019-01-24T08:42:02.803Z,48.29
2019-01-24T08:44:36.449Z,48.71
2019-01-24T08:47:07.790Z,48.69
2019-01-24T08:49:36.650Z,48.31
2019-01-24T08:52:10.930Z,48.29
2019-01-24T08:54:40.475Z,48.04
2019-01-24T08:57:09.414Z,47.93
2019-01-24T08:59:42.114Z,47.64
2019-01-24T09:02:08.771Z,47.65
2019-01-24T09:04:36.699Z,48.43
2019-01-24T09:07:04.737Z,47.51
2019-01-24T09:09:31.665Z,48.20
2019-01-24T09:11:58.361Z,47.86
2019-01-24T09:14:26.078Z,48.25
2019-01-24T09:16:52.742Z,47.85
2019-01-24T09:19:21.198Z,48.09
2019-01-24T09:21:51.057Z,46.73
2019-01-24T09:24:18.178Z,47.27
2019-01-24T09:26:44.944Z,46.71
2019-01-24T09:29:11.954Z,46.28
2019-01-24T09:31:40.919Z,46.33
2019-01-24T09:34:09.220Z,46.07
2019-01-24T09:36:37.144Z,45.90
2019-01-24T09:39:04.223Z,45.29
2019-01-24T09:41:31.421Z,45.40
2019-01-24T09:43:58.096Z,44.67
2019-01-24T09:46:25.077Z,44.52
2019-01-24T09:48:51.741Z,45.26
2019-01-24T09:51:18.694Z,45.35
2019-01-24T09:53:45.485Z,44.93
2019-01-24T09:56:12.316Z,44.68
2019-01-24T09:58:38.998Z,44.59
2019-01-24T10:01:06.039Z,43.99
2019-01-24T10:03:32.697Z,44.08
2019-01-24T10:05:59.542Z,44.66
2019-01-24T10:08:26.563Z,44.83
2019-01-24T10:10:53.541Z,44.72
2019-01-24T10:13:21.906Z,44.07
2019-01-24T10:15:48.703Z,43.76
2019-01-24T10:18:21.468Z,43.92
2019-01-24T10:20:44.122Z,43.85
2019-01-24T10:23:10.765Z,43.34
2019-01-24T10:25:38.228Z,43.48
2019-01-24T10:28:05.062Z,43.78
2019-01-24T10:30:31.841Z,44.45
2019-01-24T10:32:59.591Z,43.80
2019-01-24T10:35:26.255Z,43.38
2019-01-24T10:37:53.460Z,42.73
2019-01-24T10:40:22.648Z,43.03
2019-01-24T10:42:50.939Z,43.80
2019-01-24T10:45:17.662Z,43.52
2019-01-24T10:47:47.229Z,42.63
2019-01-24T10:50:17.866Z,42.40
2019-01-24T10:52:46.606Z,42.77
2019-01-24T10:55:17.469Z,42.88
2019-01-24T10:57:44.720Z,42.61
2019-01-24T11:00:11.662Z,42.71
2019-01-24T11:02:38.515Z,42.94
2019-01-24T11:05:05.389Z,42.57
2019-01-24T11:07:32.475Z,42.74
2019-01-24T11:09:59.483Z,42.56
2019-01-24T11:12:26.930Z,42.70
2019-01-24T11:14:55.072Z,42.75
2019-01-24T11:17:22.895Z,42.43
2019-01-24T11:19:49.722Z,41.84
2019-01-24T11:22:16.742Z,41.80
2019-01-24T11:24:43.717Z,42.08
2019-01-24T11:27:10.851Z,42.22
2019-01-24T11:29:39.454Z,42.40
2019-01-24T11:32:06.548Z,42.34
2019-01-24T11:34:33.458Z,42.25
2019-01-24T11:37:00.260Z,40.56
2019-01-24T11:39:27.298Z,40.87
2019-01-24T11:41:54.118Z,41.81
2019-01-24T11:44:21.115Z,41.50
2019-01-24T11:46:48.050Z,41.60
2019-01-24T11:49:15.071Z,40.99
2019-01-24T11:51:42.040Z,41.01
2019-01-24T11:54:08.694Z,42.17
2019-01-24T11:56:35.451Z,41.63
2019-01-24T11:59:02.142Z,41.85
2019-01-24T12:01:29.065Z,42.55
2019-01-24T12:03:55.891Z,42.72
2019-01-24T12:06:23.892Z,41.24
2019-01-24T12:08:50.509Z,42.82
2019-01-24T12:11:17.448Z,42.07
2019-01-24T12:13:44.780Z,42.25
2019-01-24T12:16:11.697Z,42.36
2019-01-24T12:18:39.032Z,41.72
2019-01-24T12:21:05.814Z,42.17
2019-01-24T12:23:32.595Z,41.94
2019-01-24T12:26:02.667Z,42.49
2019-01-24T12:28:29.538Z,43.06
2019-01-24T12:30:56.463Z,42.60
2019-01-24T12:33:24.042Z,41.52
2019-01-24T12:35:51.175Z,42.46
2019-01-24T12:38:21.037Z,42.61
2019-01-24T12:40:49.021Z,41.89
2019-01-24T12:43:16.633Z,42.74
2019-01-24T12:45:43.408Z,41.72
2019-01-24T12:48:14.684Z,42.85
2019-01-24T12:53:32.864Z,42.67
2019-01-24T12:56:00.435Z,41.75
2019-01-24T12:58:28.137Z,40.65
2019-01-24T13:00:59.432Z,41.38
2019-01-24T13:03:26.255Z,40.99
2019-01-24T13:05:54.384Z,40.75
2019-01-24T13:08:21.041Z,42.49
2019-01-24T13:10:48.055Z,42.09
2019-01-24T13:13:15.203Z,42.57
2019-01-24T13:15:42.325Z,42.20
2019-01-24T13:18:09.195Z,42.50
2019-01-24T13:20:36.162Z,42.02
2019-01-24T13:23:03.202Z,42.68
2019-01-24T13:25:30.384Z,42.00
2019-01-24T13:27:57.595Z,43.13
2019-01-24T13:30:29.259Z,42.32
2019-01-24T13:33:13.288Z,42.81
2019-01-24T13:35:46.207Z,43.05
2019-01-24T13:38:13.103Z,42.66
2019-01-24T13:40:41.222Z,43.08
2019-01-24T13:43:13.074Z,43.24
2019-01-24T13:45:43.959Z,43.38
2019-01-24T13:48:15.908Z,42.35
2019-01-24T13:50:47.142Z,43.00
2019-01-24T13:53:15.667Z,43.54
2019-01-24T13:55:47.816Z,42.70
2019-01-24T13:58:19.481Z,42.46
2019-01-24T14:00:49.555Z,42.88
2019-01-24T14:03:19.899Z,42.92
2019-01-24T14:05:47.875Z,43.40
2019-01-24T14:08:17.956Z,43.05
2019-01-24T14:10:49.881Z,43.36
2019-01-24T14:13:21.468Z,42.61
2019-01-24T14:15:51.587Z,43.13
2019-01-24T14:18:21.658Z,43.30
2019-01-24T14:20:49.450Z,43.43
2019-01-24T14:23:23.154Z,43.64
2019-01-24T14:25:50.693Z,43.48
2019-01-24T14:28:19.199Z,43.16
2019-01-24T14:30:46.888Z,43.86
2019-01-24T14:33:13.756Z,44.14
2019-01-24T14:35:40.859Z,44.29
2019-01-24T14:38:09.816Z,44.86
2019-01-24T14:40:38.962Z,44.75
2019-01-24T14:43:07.400Z,44.84
2019-01-24T14:45:35.884Z,44.89
2019-01-24T14:48:09.141Z,45.47
2019-01-24T14:50:36.880Z,45.33
2019-01-24T14:53:05.883Z,45.74
2019-01-24T14:55:37.898Z,45.72
2019-01-24T14:58:20.487Z,45.50
2019-01-24T15:00:50.119Z,45.74
2019-01-24T15:03:20.282Z,46.01
2019-01-24T15:05:48.361Z,46.01
2019-01-24T15:08:18.550Z,46.34
2019-01-24T15:10:46.343Z,46.38
2019-01-24T15:13:13.908Z,46.42
2019-01-24T15:15:43.690Z,46.62
2019-01-24T15:18:14.605Z,46.94
2019-01-24T15:20:44.490Z,47.02
2019-01-24T15:23:12.597Z,47.25
2019-01-24T15:25:47.831Z,47.32
2019-01-24T15:28:12.795Z,47.74
2019-01-24T15:30:42.686Z,47.90
2019-01-24T15:33:16.886Z,49.07
2019-01-24T15:35:45.057Z,50.12
2019-01-24T15:38:16.137Z,49.64
2019-01-24T15:40:44.341Z,50.12
2019-01-24T15:43:13.998Z,49.94
2019-01-24T15:45:41.181Z,50.09
2019-01-24T15:48:10.898Z,50.31
2019-01-24T15:50:38.337Z,50.21
2019-01-24T15:53:07.713Z,50.63
2019-01-24T15:55:37.808Z,50.74
2019-01-24T15:58:05.012Z,51.06
2019-01-24T16:00:32.523Z,51.39
2019-01-24T16:02:59.637Z,51.74
2019-01-24T16:05:26.309Z,52.22
2019-01-24T16:07:53.190Z,52.15
2019-01-24T16:10:20.219Z,51.63
2019-01-24T16:12:47.435Z,51.26
2019-01-24T16:15:14.354Z,51.37
2019-01-24T16:17:41.285Z,51.39
2019-01-24T16:20:08.138Z,50.66
2019-01-24T16:22:35.210Z,50.73
2019-01-24T16:25:02.022Z,51.19
2019-01-24T16:27:29.962Z,51.80
2019-01-24T16:30:03.609Z,52.03
2019-01-24T16:35:12.893Z,52.54
2019-01-24T16:37:39.747Z,52.33
2019-01-24T16:40:06.717Z,52.12
2019-01-24T16:42:33.936Z,53.14
2019-01-24T16:45:02.199Z,53.23
2019-01-24T16:47:28.990Z,53.15
2019-01-24T16:49:55.979Z,52.92
2019-01-24T16:52:22.911Z,52.43
2019-01-24T16:54:49.627Z,53.31
2019-01-24T16:57:16.328Z,53.74
2019-01-24T16:59:43.091Z,53.46
2019-01-24T17:02:09.690Z,52.72
2019-01-24T17:04:37.549Z,52.43
2019-01-24T17:07:04.149Z,52.57
2019-01-24T17:09:31.979Z,53.29
2019-01-24T17:11:58.949Z,53.60
2019-01-24T17:14:26.546Z,53.66
2019-01-24T17:16:54.399Z,53.32
2019-01-24T17:19:22.773Z,53.62
2019-01-24T17:21:49.820Z,53.61
2019-01-24T17:24:16.599Z,53.26
2019-01-24T17:26:43.289Z,53.52
2019-01-24T17:29:09.886Z,54.22
2019-01-24T17:31:36.809Z,54.34
2019-01-24T17:34:04.343Z,53.93
2019-01-24T17:36:31.019Z,53.73
2019-01-24T17:38:59.000Z,53.08
2019-01-24T17:41:26.482Z,53.04
2019-01-24T17:43:54.150Z,52.79
2019-01-24T17:46:21.019Z,52.93
2019-01-24T17:48:55.427Z,52.67
2019-01-24T17:51:19.445Z,52.83
2019-01-24T17:53:47.176Z,53.40
2019-01-24T17:56:16.485Z,54.36
2019-01-24T17:58:43.212Z,54.61
2019-01-24T18:01:23.950Z,54.61
2019-01-24T18:03:38.267Z,53.77
2019-01-24T18:06:05.184Z,54.05
2019-01-24T18:08:33.655Z,53.84
2019-01-24T18:11:00.796Z,53.37
2019-01-24T18:13:28.505Z,53.63
2019-01-24T18:15:55.468Z,53.95
2019-01-24T18:18:22.456Z,54.20
2019-01-24T18:20:50.755Z,54.57
2019-01-24T18:23:17.832Z,54.83
2019-01-24T18:25:44.568Z,54.64
2019-01-24T18:28:15.942Z,54.19
2019-01-24T18:30:40.086Z,53.97
2019-01-24T18:33:08.959Z,52.47
2019-01-24T18:35:39.813Z,52.36
2019-01-24T18:38:07.064Z,52.10
2019-01-24T18:40:37.179Z,52.18
2019-01-24T18:43:10.677Z,51.54
2019-01-24T18:45:44.495Z,50.98
2019-01-24T18:48:14.874Z,50.50
2019-01-24T18:53:29.431Z,49.31
2019-01-24T18:56:00.411Z,49.46
2019-01-24T18:58:28.623Z,49.31
2019-01-24T19:00:58.344Z,48.30
2019-01-24T19:03:25.627Z,48.26
2019-01-24T19:05:52.494Z,47.83
2019-01-24T19:08:19.404Z,47.05
2019-01-24T19:10:46.040Z,47.02
2019-01-24T19:13:14.488Z,47.20
2019-01-24T19:15:42.240Z,46.08
2019-01-24T19:18:08.879Z,45.90
2019-01-24T19:23:23.897Z,46.96
2019-01-24T19:25:51.894Z,46.76
2019-01-24T19:28:22.801Z,46.60
2019-01-24T19:30:50.901Z,47.06
2019-01-24T19:33:18.610Z,45.98
2019-01-24T19:35:46.576Z,46.63
2019-01-24T19:38:13.582Z,45.68
2019-01-24T19:40:41.056Z,45.46
2019-01-24T19:43:07.775Z,44.91
2019-01-24T19:45:34.693Z,45.72
2019-01-24T19:48:02.570Z,45.99
2019-01-24T19:50:30.237Z,44.90
2019-01-24T19:52:58.821Z,44.65
2019-01-24T19:55:25.778Z,45.53
2019-01-24T19:57:56.114Z,45.55
2019-01-24T20:00:23.215Z,45.31
2019-01-24T20:02:51.025Z,45.01
2019-01-24T20:05:19.131Z,44.71
2019-01-24T20:07:46.824Z,45.04
2019-01-24T20:10:14.633Z,45.42
2019-01-24T20:12:41.301Z,44.76
2019-01-24T20:15:08.077Z,45.01
2019-01-24T20:17:35.717Z,45.02
2019-01-24T20:20:03.419Z,44.27
2019-01-24T20:22:30.409Z,44.95
2019-01-24T20:24:57.217Z,44.98
2019-01-24T20:27:24.232Z,45.13
2019-01-24T20:29:51.106Z,44.80
2019-01-24T20:32:18.805Z,44.53
2019-01-24T20:34:46.570Z,44.88
2019-01-24T20:37:13.456Z,44.50
2019-01-24T20:39:40.792Z,44.08
2019-01-24T20:42:07.739Z,44.63
2019-01-24T20:44:34.780Z,42.67
2019-01-24T20:47:01.561Z,43.61
2019-01-24T20:49:28.260Z,44.17
2019-01-24T20:51:54.892Z,43.99
2019-01-24T20:54:21.725Z,43.69
2019-01-24T20:56:48.952Z,44.07
2019-01-24T20:59:15.718Z,43.43
2019-01-24T21:01:42.344Z,43.94
2019-01-24T21:04:09.202Z,43.35
2019-01-24T21:06:36.276Z,42.75
2019-01-24T21:09:03.228Z,42.97
2019-01-24T21:11:29.908Z,42.93
2019-01-24T21:13:56.602Z,43.18
2019-01-24T21:16:23.360Z,42.28
2019-01-24T21:18:50.255Z,42.28
2019-01-24T21:21:16.942Z,42.55
2019-01-24T21:23:43.555Z,42.11
2019-01-24T21:26:11.984Z,40.75
2019-01-24T21:28:38.669Z,41.32
2019-01-24T21:31:05.328Z,42.60
2019-01-24T21:33:32.001Z,41.44
2019-01-24T21:35:58.684Z,41.89
2019-01-24T21:38:25.610Z,42.09
2019-01-24T21:40:52.673Z,41.56
2019-01-24T21:43:19.625Z,42.01
2019-01-24T21:45:46.231Z,41.92
2019-01-24T21:48:13.266Z,42.33
2019-01-24T21:50:40.114Z,42.61
2019-01-24T21:53:06.718Z,42.62
2019-01-24T21:55:33.345Z,42.44
2019-01-24T21:58:00.058Z,42.02
2019-01-24T22:00:26.784Z,42.76
2019-01-24T22:02:53.450Z,42.74
2019-01-24T22:05:20.324Z,41.10
2019-01-24T22:07:47.260Z,41.29
2019-01-24T22:10:13.996Z,42.22
2019-01-24T22:12:42.528Z,41.95
2019-01-24T22:15:09.230Z,41.68
2019-01-24T22:17:36.175Z,42.26
2019-01-24T22:20:03.235Z,42.15
2019-01-24T22:22:30.236Z,41.67
2019-01-24T22:24:57.254Z,42.45
2019-01-24T22:27:24.538Z,42.06
2019-01-24T22:29:51.322Z,40.32
2019-01-24T22:32:18.265Z,41.35
2019-01-24T22:34:45.267Z,40.78
2019-01-24T22:37:12.681Z,40.32
2019-01-24T22:39:39.464Z,41.15
2019-01-24T22:42:06.455Z,41.62
2019-01-24T22:44:33.550Z,41.82
2019-01-24T22:47:00.467Z,41.32
2019-01-24T22:49:27.382Z,40.63
2019-01-24T22:51:54.040Z,41.50
2019-01-24T22:54:21.043Z,41.62
2019-01-24T22:56:48.151Z,41.97
2019-01-24T22:59:14.861Z,42.01
2019-01-24T23:01:43.029Z,42.01
2019-01-24T23:04:09.825Z,42.46
2019-01-24T23:06:36.812Z,42.38
2019-01-24T23:09:04.194Z,42.38
2019-01-24T23:11:30.875Z,42.77
2019-01-24T23:13:57.835Z,42.83
2019-01-24T23:16:24.521Z,42.89
2019-01-24T23:18:51.216Z,42.84
2019-01-24T23:21:17.921Z,42.81
2019-01-24T23:23:44.640Z,43.50
2019-01-24T23:26:11.338Z,43.14
2019-01-24T23:28:38.150Z,43.22
2019-01-24T23:31:05.099Z,43.17
2019-01-24T23:33:31.856Z,43.28
2019-01-24T23:35:58.444Z,43.29
2019-01-24T23:38:25.110Z,43.41
2019-01-24T23:40:51.848Z,43.66
2019-01-24T23:43:18.552Z,43.71
2019-01-24T23:45:46.078Z,43.96
2019-01-24T23:48:13.592Z,43.75
2019-01-24T23:50:40.330Z,44.07
2019-01-24T23:53:07.322Z,44.45
2019-01-24T23:55:34.020Z,44.68
2019-01-24T23:58:00.649Z,44.81
